Time;durP1;ratioP1;P1;durP2;ratioP2;P2;SDS_P1;SDS_P2;PMS_P1;PMS_P2;Temp;Humidity;BMP_temperature;BMP_pressure;BME280_temperature;BME280_humidity;BME280_pressure;Samples;Min_cycle;Max_cycle;Signal;HPM_P1;HPM_P2
2020/12/29 00:02:22;;;;;;;51.65;25.98;;;4.40;99.90;;;;;;5074672;28;20036;-60
2020/12/29 00:04:47;;;;;;;50.63;25.35;;;4.30;99.90;;;;;;5075335;28;20535;-61
2020/12/29 00:07:13;;;;;;;58.10;26.55;;;4.30;99.90;;;;;;5073313;28;20123;-60
2020/12/29 00:09:38;;;;;;;45.60;26.02;;;4.30;99.90;;;;;;5046256;28;20111;-60
2020/12/29 00:12:04;;;;;;;53.22;26.80;;;4.30;99.90;;;;;;5072255;28;20111;-60
2020/12/29 00:14:30;;;;;;;48.90;26.20;;;4.30;99.90;;;;;;5073771;28;20068;-60
2020/12/29 00:16:56;;;;;;;49.13;26.27;;;4.30;99.90;;;;;;5072659;28;20408;-60
2020/12/29 00:19:24;;;;;;;49.13;24.85;;;4.30;99.90;;;;;;5071566;28;20076;-61
2020/12/29 00:21:50;;;;;;;50.03;25.48;;;4.30;99.90;;;;;;5068513;28;20031;-60
2020/12/29 00:24:15;;;;;;;52.90;26.20;;;4.30;99.90;;;;;;5069858;28;20398;-61
2020/12/29 00:26:41;;;;;;;51.17;26.35;;;4.30;99.90;;;;;;5073603;28;20016;-60
2020/12/29 00:29:07;;;;;;;58.08;29.75;;;4.40;99.90;;;;;;5054723;28;20025;-59
2020/12/29 00:31:34;;;;;;;57.85;28.80;;;4.30;99.90;;;;;;5072290;28;20040;-60
2020/12/29 00:34:00;;;;;;;65.60;31.13;;;4.20;99.90;;;;;;5072294;28;20039;-59
2020/12/29 00:36:26;;;;;;;52.58;27.58;;;4.30;99.90;;;;;;5059274;28;20028;-60
2020/12/29 00:38:52;;;;;;;48.03;26.00;;;4.20;99.90;;;;;;5072509;28;20075;-60
2020/12/29 00:41:18;;;;;;;46.78;24.40;;;4.10;99.90;;;;;;5069734;28;20547;-59
2020/12/29 00:43:44;;;;;;;49.22;25.67;;;4.10;99.90;;;;;;5073225;28;20052;-61
2020/12/29 00:46:12;;;;;;;56.28;26.25;;;4.10;99.90;;;;;;5072484;28;20155;-60
2020/12/29 00:48:38;;;;;;;51.60;25.48;;;4.10;99.90;;;;;;5069249;28;20055;-66
2020/12/29 00:51:05;;;;;;;51.67;25.92;;;4.00;99.90;;;;;;5072076;28;20016;-60
2020/12/29 00:53:31;;;;;;;51.17;26.05;;;3.90;99.90;;;;;;5068261;28;20512;-60
2020/12/29 00:55:59;;;;;;;60.58;26.08;;;4.00;99.90;;;;;;5072973;28;20016;-62
2020/12/29 00:58:25;;;;;;;46.90;25.05;;;4.00;99.90;;;;;;5072673;28;20032;-61
2020/12/29 01:00:50;;;;;;;50.20;25.30;;;4.00;99.90;;;;;;5071078;28;20436;-60
2020/12/29 01:03:16;;;;;;;52.17;26.48;;;4.00;99.90;;;;;;5063066;28;20033;-59
2020/12/29 01:05:44;;;;;;;49.50;24.40;;;3.90;99.90;;;;;;5072155;28;20107;-61
2020/12/29 01:08:09;;;;;;;45.78;24.83;;;4.00;99.90;;;;;;5072903;28;20028;-59
2020/12/29 01:10:35;;;;;;;52.28;25.45;;;4.00;99.90;;;;;;5072992;28;20436;-60
2020/12/29 01:13:01;;;;;;;52.63;26.77;;;4.10;99.90;;;;;;5059423;28;20032;-61
2020/12/29 01:15:26;;;;;;;44.28;23.75;;;4.00;99.90;;;;;;5072442;28;20036;-60
2020/12/29 01:17:54;;;;;;;44.22;24.63;;;4.00;99.90;;;;;;5073228;28;20500;-61
2020/12/29 01:20:19;;;;;;;44.50;23.98;;;4.00;99.90;;;;;;5073890;28;20481;-60
2020/12/29 01:22:45;;;;;;;52.40;26.55;;;4.10;99.90;;;;;;5070968;28;20035;-59
2020/12/29 01:25:10;;;;;;;50.47;27.17;;;4.10;99.90;;;;;;5071718;28;20474;-63
2020/12/29 01:27:36;;;;;;;57.75;27.48;;;4.10;99.90;;;;;;5071390;28;20025;-59
2020/12/29 01:30:05;;;;;;;42.75;22.67;;;4.10;99.90;;;;;;5071954;28;20021;-60
2020/12/29 01:32:30;;;;;;;52.72;27.60;;;4.20;99.90;;;;;;5071185;28;20435;-60
2020/12/29 01:34:56;;;;;;;58.65;27.70;;;4.30;99.90;;;;;;5072122;28;20603;-59
2020/12/29 01:37:22;;;;;;;55.63;28.30;;;4.40;99.90;;;;;;5068008;28;20024;-60
2020/12/29 01:39:47;;;;;;;53.80;28.58;;;4.20;99.90;;;;;;5068886;28;20028;-60
2020/12/29 01:42:13;;;;;;;58.30;28.83;;;4.00;99.90;;;;;;5069245;28;20039;-61
2020/12/29 01:44:38;;;;;;;66.85;30.77;;;4.00;99.90;;;;;;5071656;28;20417;-59
2020/12/29 01:47:04;;;;;;;62.85;30.05;;;3.90;99.90;;;;;;5070970;28;20478;-60
2020/12/29 01:49:30;;;;;;;58.28;29.08;;;3.90;99.90;;;;;;5071319;28;20118;-61
2020/12/29 01:51:55;;;;;;;60.05;28.67;;;4.00;99.90;;;;;;5066642;28;20024;-60
2020/12/29 01:54:21;;;;;;;59.45;29.35;;;3.90;99.90;;;;;;5071702;28;20078;-60
2020/12/29 01:56:46;;;;;;;66.78;29.80;;;3.90;99.90;;;;;;5070860;28;20509;-60
2020/12/29 01:59:13;;;;;;;63.35;29.30;;;3.90;99.90;;;;;;5067662;28;20025;-59
2020/12/29 02:01:45;;;;;;;59.30;28.85;;;3.80;99.90;;;;;;5061229;28;20021;-60
2020/12/29 02:04:14;;;;;;;60.30;26.88;;;3.80;99.90;;;;;;5058328;28;20041;-60
2020/12/29 02:06:40;;;;;;;54.92;27.85;;;3.70;99.90;;;;;;5069826;28;20179;-59
2020/12/29 02:09:10;;;;;;;59.72;27.13;;;3.90;99.90;;;;;;5069863;28;20455;-59
2020/12/29 02:11:36;;;;;;;56.50;27.60;;;3.80;99.90;;;;;;5068235;28;20021;-59
2020/12/29 02:14:03;;;;;;;59.58;28.17;;;3.70;99.90;;;;;;5059625;28;20043;-60
2020/12/29 02:16:29;;;;;;;52.47;26.10;;;3.70;99.90;;;;;;5063975;28;20373;-59
2020/12/29 02:18:54;;;;;;;52.28;25.27;;;3.70;99.90;;;;;;5059744;28;20638;-61
2020/12/29 02:21:20;;;;;;;51.20;26.58;;;3.70;99.90;;;;;;5064042;28;20027;-61
2020/12/29 02:23:45;;;;;;;54.45;25.88;;;3.60;99.90;;;;;;5063894;28;20025;-60
2020/12/29 02:26:11;;;;;;;46.83;25.15;;;3.60;99.90;;;;;;5067346;28;20027;-60
2020/12/29 02:28:37;;;;;;;50.17;24.05;;;3.60;99.90;;;;;;5063864;28;20102;-61
2020/12/29 02:31:03;;;;;;;42.42;22.88;;;3.60;99.90;;;;;;5069012;28;20028;-60
2020/12/29 02:33:28;;;;;;;41.38;22.27;;;3.60;99.90;;;;;;5063155;28;20437;-60
2020/12/29 02:35:54;;;;;;;43.97;23.45;;;3.60;99.90;;;;;;5062787;28;20033;-61
2020/12/29 02:38:24;;;;;;;49.55;24.38;;;3.60;99.90;;;;;;5062231;28;20038;-60
2020/12/29 02:40:51;;;;;;;42.10;22.55;;;3.70;99.90;;;;;;5065530;28;20029;-60
2020/12/29 02:43:17;;;;;;;49.17;23.83;;;3.70;99.90;;;;;;5065214;28;20033;-59
2020/12/29 02:45:43;;;;;;;49.58;23.60;;;3.70;99.90;;;;;;5065780;28;20375;-59
2020/12/29 02:48:09;;;;;;;45.50;23.30;;;3.70;99.90;;;;;;5062674;28;20032;-59
2020/12/29 02:50:34;;;;;;;41.40;21.15;;;3.80;99.90;;;;;;5064394;28;20025;-63
2020/12/29 02:53:00;;;;;;;43.78;22.83;;;3.80;99.90;;;;;;5065939;28;20025;-60
2020/12/29 02:55:26;;;;;;;45.38;21.42;;;3.70;99.90;;;;;;5059350;28;20037;-59
2020/12/29 02:57:52;;;;;;;41.35;21.45;;;3.70;99.90;;;;;;5070866;28;20108;-59
2020/12/29 03:00:18;;;;;;;45.67;22.25;;;3.70;99.90;;;;;;5070264;28;20484;-60
2020/12/29 03:02:44;;;;;;;43.03;22.02;;;3.70;99.90;;;;;;5063619;28;20046;-60
2020/12/29 03:05:09;;;;;;;42.78;20.80;;;3.60;99.90;;;;;;5061720;28;20029;-60
2020/12/29 03:07:35;;;;;;;48.60;22.63;;;3.60;99.90;;;;;;5064615;28;20513;-61
2020/12/29 03:10:00;;;;;;;49.25;22.73;;;3.60;99.90;;;;;;5062829;28;20379;-60
2020/12/29 03:12:26;;;;;;;42.67;22.02;;;3.60;99.90;;;;;;5067312;28;20033;-60
2020/12/29 03:14:52;;;;;;;49.40;23.05;;;3.60;99.90;;;;;;5068093;28;20093;-60
2020/12/29 03:17:17;;;;;;;48.15;22.98;;;3.60;99.90;;;;;;5068891;28;20035;-59
2020/12/29 03:19:43;;;;;;;49.38;22.85;;;3.60;99.90;;;;;;5068067;28;20031;-60
2020/12/29 03:22:08;;;;;;;54.28;25.38;;;3.60;99.90;;;;;;5070069;28;20120;-61
2020/12/29 03:24:34;;;;;;;55.22;24.38;;;3.60;99.90;;;;;;5075804;28;20028;-60
2020/12/29 03:26:59;;;;;;;55.50;26.42;;;3.60;99.90;;;;;;5087903;28;20036;-58
2020/12/29 03:29:25;;;;;;;64.50;27.23;;;3.60;99.90;;;;;;5083853;28;20044;-59
2020/12/29 03:31:51;;;;;;;60.22;25.60;;;3.60;99.90;;;;;;5083340;28;20135;-60
2020/12/29 03:34:26;;;;;;;58.80;26.25;;;3.50;99.90;;;;;;5081383;28;20363;-59
2020/12/29 03:36:52;;;;;;;60.53;28.33;;;3.50;99.90;;;;;;5073338;28;20028;-60
2020/12/29 03:39:18;;;;;;;68.70;27.92;;;3.50;99.90;;;;;;5068355;28;20037;-60
2020/12/29 03:41:44;;;;;;;65.45;27.77;;;3.50;99.90;;;;;;5071571;28;20025;-59
2020/12/29 03:44:10;;;;;;;67.20;27.23;;;3.50;99.90;;;;;;5074317;28;20072;-60
2020/12/29 03:46:35;;;;;;;64.82;27.88;;;3.50;99.90;;;;;;5073297;28;20070;-60
2020/12/29 03:49:01;;;;;;;63.83;28.55;;;3.50;99.90;;;;;;5055661;28;20075;-61
2020/12/29 03:51:26;;;;;;;68.50;28.63;;;3.60;99.90;;;;;;5072248;28;20032;-60
2020/12/29 03:53:53;;;;;;;70.53;26.40;;;3.60;99.90;;;;;;5072554;28;20017;-60
2020/12/29 03:56:18;;;;;;;70.22;29.75;;;3.50;99.90;;;;;;5049446;28;20024;-59
2020/12/29 03:58:44;;;;;;;67.97;28.95;;;3.50;99.90;;;;;;5072664;28;20021;-61
2020/12/29 04:01:09;;;;;;;66.88;28.65;;;3.50;99.90;;;;;;5066078;28;20025;-59
2020/12/29 04:03:35;;;;;;;63.20;28.38;;;3.50;99.90;;;;;;5071609;28;20024;-61
2020/12/29 04:06:00;;;;;;;71.35;27.95;;;3.50;99.90;;;;;;5071138;28;20024;-60
2020/12/29 04:08:26;;;;;;;69.63;28.58;;;3.60;99.90;;;;;;5072596;28;20113;-60
2020/12/29 04:10:51;;;;;;;74.30;27.17;;;3.60;99.90;;;;;;5069306;28;20031;-60
2020/12/29 04:13:17;;;;;;;74.90;28.15;;;3.60;99.90;;;;;;5070884;28;20032;-61
2020/12/29 04:15:43;;;;;;;63.83;27.42;;;3.60;99.90;;;;;;5071894;28;20029;-59
2020/12/29 04:18:08;;;;;;;53.25;24.08;;;3.70;99.90;;;;;;5072303;28;20386;-60
2020/12/29 04:20:33;;;;;;;62.38;22.83;;;3.80;99.90;;;;;;5072687;28;20506;-60
2020/12/29 04:22:59;;;;;;;51.40;21.67;;;3.70;99.90;;;;;;5072631;28;20064;-59
2020/12/29 04:25:25;;;;;;;42.80;19.70;;;3.80;99.90;;;;;;5071267;28;20116;-59
2020/12/29 04:27:50;;;;;;;46.88;19.95;;;3.90;99.90;;;;;;5071155;28;20041;-58
2020/12/29 04:30:16;;;;;;;42.92;20.55;;;3.90;99.90;;;;;;5071570;28;20021;-59
2020/12/29 04:32:41;;;;;;;47.17;20.25;;;4.10;99.90;;;;;;5072207;28;20344;-59
2020/12/29 04:35:07;;;;;;;38.10;17.88;;;4.20;99.90;;;;;;5072522;28;20036;-59
2020/12/29 04:37:34;;;;;;;34.65;16.65;;;4.20;99.90;;;;;;5072779;28;20036;-59
2020/12/29 04:40:00;;;;;;;37.53;18.13;;;4.20;99.90;;;;;;5072116;28;20035;-60
2020/12/29 04:42:27;;;;;;;44.53;19.60;;;4.20;99.90;;;;;;5071524;28;20032;-59
2020/12/29 04:44:52;;;;;;;45.25;19.70;;;4.20;99.90;;;;;;5071629;28;20519;-60
2020/12/29 04:47:18;;;;;;;42.20;19.33;;;4.30;99.90;;;;;;5082327;22;20028;-61
2020/12/29 04:49:45;;;;;;;40.50;18.83;;;4.20;99.90;;;;;;5070858;28;20046;-60
2020/12/29 04:52:11;;;;;;;42.90;19.15;;;4.20;99.90;;;;;;5071836;28;20048;-60
2020/12/29 04:54:39;;;;;;;44.53;20.25;;;4.00;99.90;;;;;;5069949;28;20113;-61
2020/12/29 04:57:06;;;;;;;44.55;19.08;;;3.80;99.90;;;;;;5067331;28;20056;-61
2020/12/29 04:59:33;;;;;;;46.20;19.83;;;3.90;99.90;;;;;;5071328;28;20035;-61
2020/12/29 05:02:00;;;;;;;46.65;20.27;;;3.90;99.90;;;;;;5070379;28;20077;-61
2020/12/29 05:04:25;;;;;;;51.17;20.55;;;3.90;99.90;;;;;;5070709;28;20397;-62
2020/12/29 05:06:52;;;;;;;47.33;20.08;;;3.80;99.90;;;;;;5071496;28;20020;-61
2020/12/29 05:09:21;;;;;;;56.40;22.50;;;3.80;99.90;;;;;;5071657;28;20012;-61
2020/12/29 05:11:47;;;;;;;54.22;20.83;;;3.70;99.90;;;;;;5066557;28;20055;-59
2020/12/29 05:14:13;;;;;;;60.60;23.13;;;3.70;99.90;;;;;;5071284;28;20108;-61
2020/12/29 05:16:39;;;;;;;61.08;23.63;;;3.70;99.90;;;;;;5072187;28;20095;-60
2020/12/29 05:19:14;;;;;;;54.03;21.38;;;3.70;99.90;;;;;;5071887;28;20032;-60
2020/12/29 05:21:42;;;;;;;47.83;19.58;;;3.80;99.90;;;;;;5065754;28;20031;-61
2020/12/29 05:24:11;;;;;;;44.67;19.20;;;3.70;99.90;;;;;;5053965;28;20029;-61
2020/12/29 05:26:37;;;;;;;46.17;17.88;;;3.70;99.90;;;;;;5070564;28;20020;-61
2020/12/29 05:29:04;;;;;;;46.95;18.58;;;3.80;99.90;;;;;;5061459;28;20027;-60
2020/12/29 05:31:32;;;;;;;40.90;17.27;;;3.90;99.90;;;;;;5070179;28;20390;-61
2020/12/29 05:33:59;;;;;;;42.60;18.83;;;3.80;99.90;;;;;;5070335;28;20039;-60
2020/12/29 05:36:25;;;;;;;42.08;17.60;;;3.70;99.90;;;;;;5070497;28;20029;-61
2020/12/29 05:38:55;;;;;;;33.13;14.88;;;3.70;99.90;;;;;;5073230;28;20150;-61
2020/12/29 05:41:22;;;;;;;38.60;17.35;;;3.70;99.90;;;;;;5073822;28;20017;-61
2020/12/29 05:44:00;;;;;;;29.55;15.10;;;3.70;99.90;;;;;;5064821;28;20032;-62
2020/12/29 05:46:28;;;;;;;29.00;14.07;;;3.80;99.90;;;;;;5054704;28;20032;-61
2020/12/29 05:48:58;;;;;;;30.65;14.10;;;3.70;99.90;;;;;;5067320;28;20113;-60
2020/12/29 05:51:24;;;;;;;28.48;13.48;;;3.70;99.90;;;;;;5075093;28;20051;-60
2020/12/29 05:53:56;;;;;;;27.98;12.57;;;3.70;99.90;;;;;;5073233;28;20446;-60
2020/12/29 05:56:22;;;;;;;29.73;13.50;;;3.60;99.90;;;;;;5075439;28;20111;-62
2020/12/29 05:58:48;;;;;;;22.05;12.13;;;3.60;99.90;;;;;;5073461;28;20052;-59
2020/12/29 06:01:14;;;;;;;26.15;13.55;;;3.60;99.90;;;;;;5046282;28;20056;-62
2020/12/29 06:03:40;;;;;;;27.20;12.90;;;3.50;99.90;;;;;;5048789;28;20402;-61
2020/12/29 06:06:07;;;;;;;27.70;14.15;;;3.50;99.90;;;;;;5075712;28;20020;-60
2020/12/29 06:08:36;;;;;;;30.83;16.27;;;3.60;99.90;;;;;;5076228;28;20115;-61
2020/12/29 06:11:12;;;;;;;28.95;14.63;;;3.60;99.90;;;;;;5075973;28;20066;-63
2020/12/29 06:13:38;;;;;;;23.73;13.18;;;3.70;99.90;;;;;;5076134;28;20088;-60
2020/12/29 06:16:04;;;;;;;25.85;14.77;;;3.90;99.90;;;;;;5073016;28;20051;-60
2020/12/29 06:18:44;;;;;;;29.58;15.30;;;4.00;99.90;;;;;;5070146;28;20032;-60
2020/12/29 06:21:12;;;;;;;32.83;14.95;;;4.10;99.90;;;;;;5069482;28;20024;-61
2020/12/29 06:23:48;;;;;;;35.65;17.58;;;4.10;99.90;;;;;;5070256;28;20437;-60
2020/12/29 06:26:18;;;;;;;35.33;17.20;;;4.00;99.90;;;;;;5067580;28;20017;-60
2020/12/29 06:28:48;;;;;;;33.83;16.90;;;4.00;99.90;;;;;;5069393;28;20051;-60
2020/12/29 06:31:29;;;;;;;34.80;17.63;;;4.10;99.90;;;;;;5066336;28;20019;-60
2020/12/29 06:33:58;;;;;;;40.10;18.80;;;4.20;99.90;;;;;;5072972;28;20036;-62
2020/12/29 06:36:26;;;;;;;44.53;19.65;;;4.10;99.90;;;;;;5070931;28;20081;-61
2020/12/29 06:38:56;;;;;;;44.28;19.52;;;4.00;99.90;;;;;;5070947;28;20029;-61
2020/12/29 06:41:23;;;;;;;45.97;19.85;;;3.90;99.90;;;;;;5069853;28;20482;-62
2020/12/29 06:43:49;;;;;;;44.75;20.52;;;3.90;99.90;;;;;;5035257;28;20058;-60
2020/12/29 06:46:15;;;;;;;44.05;19.92;;;3.90;99.90;;;;;;5065460;28;20104;-60
2020/12/29 06:48:41;;;;;;;40.63;18.95;;;3.80;99.90;;;;;;5067944;28;20032;-61
2020/12/29 06:51:12;;;;;;;42.50;20.00;;;3.80;99.90;;;;;;5067939;28;20462;-61
2020/12/29 06:53:39;;;;;;;41.47;19.30;;;3.80;99.90;;;;;;5067580;28;20508;-60
2020/12/29 06:56:13;;;;;;;36.58;17.33;;;3.80;99.90;;;;;;5068441;28;20032;-59
2020/12/29 06:58:38;;;;;;;43.58;18.40;;;3.90;99.90;;;;;;5066744;28;20036;-62
2020/12/29 07:01:24;;;;;;;39.03;19.33;;;4.00;99.90;;;;;;5066452;28;20088;-61
2020/12/29 07:04:03;;;;;;;41.03;18.55;;;4.10;99.90;;;;;;5046758;28;20028;-60
2020/12/29 07:06:30;;;;;;;40.53;18.98;;;4.10;99.90;;;;;;5067005;28;20285;-62
2020/12/29 07:09:07;;;;;;;35.95;17.65;;;4.20;99.90;;;;;;5067361;28;20017;-60
2020/12/29 07:11:34;;;;;;;43.03;21.05;;;4.30;99.90;;;;;;5067227;28;20488;-63
2020/12/29 07:14:03;;;;;;;35.35;17.88;;;4.30;99.90;;;;;;5069036;28;20187;-61
2020/12/29 07:16:29;;;;;;;35.55;17.25;;;4.40;99.90;;;;;;5068830;28;20082;-60
2020/12/29 07:19:13;;;;;;;37.35;21.05;;;4.50;99.90;;;;;;5064218;28;20383;-61
2020/12/29 07:21:38;;;;;;;36.72;18.33;;;4.50;99.90;;;;;;5068502;28;20102;-61
2020/12/29 07:24:05;;;;;;;40.33;17.83;;;4.40;99.90;;;;;;5061134;28;20024;-61
2020/12/29 07:26:37;;;;;;;36.10;17.85;;;4.20;99.90;;;;;;5076236;28;20099;-60
2020/12/29 07:29:05;;;;;;;34.42;17.42;;;4.20;99.90;;;;;;5053365;28;20017;-61
2020/12/29 07:31:39;;;;;;;40.28;17.75;;;4.30;99.90;;;;;;5069696;28;20021;-61
2020/12/29 07:34:09;;;;;;;37.33;17.88;;;4.20;99.90;;;;;;5067721;28;20028;-60
2020/12/29 07:36:37;;;;;;;40.85;18.25;;;4.20;99.90;;;;;;5069685;28;20032;-60
2020/12/29 07:39:03;;;;;;;38.80;16.63;;;4.20;99.90;;;;;;5069874;28;20020;-60
2020/12/29 07:41:28;;;;;;;35.85;17.75;;;4.20;99.90;;;;;;5051755;28;20035;-61
2020/12/29 07:43:54;;;;;;;34.97;16.85;;;4.30;99.90;;;;;;5069752;28;20086;-62
2020/12/29 07:46:20;;;;;;;35.03;18.05;;;4.30;99.90;;;;;;5069107;28;20016;-61
2020/12/29 07:48:45;;;;;;;42.55;18.35;;;4.20;99.90;;;;;;5058919;28;20037;-61
2020/12/29 07:51:11;;;;;;;37.65;17.67;;;4.20;99.90;;;;;;5058786;28;20021;-61
2020/12/29 07:53:36;;;;;;;32.58;16.45;;;4.10;99.90;;;;;;5048203;28;20136;-60
2020/12/29 07:56:02;;;;;;;38.83;17.75;;;4.10;99.90;;;;;;5050496;28;20043;-61
2020/12/29 07:58:28;;;;;;;44.25;17.77;;;4.10;99.90;;;;;;5049161;28;20021;-60
2020/12/29 08:00:53;;;;;;;38.80;17.27;;;4.10;99.90;;;;;;5051603;28;20028;-61
2020/12/29 08:03:19;;;;;;;42.47;19.20;;;4.10;99.90;;;;;;5052011;28;20035;-60
2020/12/29 08:05:45;;;;;;;42.47;18.90;;;4.10;99.90;;;;;;5056339;28;20028;-61
2020/12/29 08:08:14;;;;;;;37.08;18.15;;;4.20;99.90;;;;;;5067105;28;20021;-61
2020/12/29 08:10:42;;;;;;;39.60;19.05;;;4.20;99.90;;;;;;5061666;28;20017;-61
2020/12/29 08:13:11;;;;;;;41.67;20.02;;;4.20;99.90;;;;;;5034830;28;20112;-60
2020/12/29 08:15:43;;;;;;;43.13;20.33;;;4.20;99.90;;;;;;5059389;28;20036;-61
2020/12/29 08:18:16;;;;;;;;;;;4.20;99.90;;;;;;5057928;28;20032;-61
2020/12/29 08:20:48;;;;;;;35.85;16.55;;;4.30;99.90;;;;;;5058337;28;20387;-61
2020/12/29 08:23:16;;;;;;;40.92;19.20;;;4.40;99.90;;;;;;5052674;28;20425;-61
2020/12/29 08:25:51;;;;;;;41.90;20.10;;;4.60;99.90;;;;;;5060790;28;20083;-61
2020/12/29 08:28:16;;;;;;;45.83;20.13;;;4.70;99.90;;;;;;5053272;28;20044;-61
2020/12/29 08:30:42;;;;;;;44.15;19.98;;;4.80;99.90;;;;;;5062823;28;20017;-60
2020/12/29 08:33:08;;;;;;;41.42;19.75;;;4.80;99.90;;;;;;5051916;28;20055;-61
2020/12/29 08:35:43;;;;;;;43.88;20.75;;;4.80;99.90;;;;;;5034773;28;20025;-60
2020/12/29 08:38:31;;;;;;;44.67;19.27;;;4.70;99.90;;;;;;5031896;28;20251;-61
2020/12/29 08:41:14;;;;;;;45.28;21.42;;;4.90;99.90;;;;;;5051610;28;20036;-61
2020/12/29 08:43:40;;;;;;;;;;;4.90;99.90;;;;;;5053030;28;20017;-60
2020/12/29 08:46:07;;;;;;;48.83;22.45;;;4.80;99.90;;;;;;5051224;28;19936;-60
2020/12/29 08:48:33;;;;;;;54.90;24.33;;;4.80;99.90;;;;;;5062771;28;20040;-62
2020/12/29 08:51:00;;;;;;;50.17;24.58;;;4.80;99.90;;;;;;5072337;28;20382;-61
2020/12/29 08:53:29;;;;;;;41.75;22.42;;;4.90;99.90;;;;;;5072121;28;20039;-62
2020/12/29 08:55:54;;;;;;;46.40;22.45;;;5.10;99.90;;;;;;5072397;28;20039;-63
2020/12/29 08:58:26;;;;;;;55.20;25.70;;;5.10;99.90;;;;;;5069730;28;20020;-63
2020/12/29 09:00:53;;;;;;;46.20;22.77;;;5.10;99.90;;;;;;5072704;28;20020;-61
2020/12/29 09:03:23;;;;;;;43.33;21.77;;;5.10;99.90;;;;;;5071279;28;20028;-61
2020/12/29 09:05:54;;;;;;;43.33;23.20;;;5.10;99.90;;;;;;5054817;28;20107;-63
2020/12/29 09:08:30;;;;;;;41.33;23.30;;;5.10;99.90;;;;;;5071879;28;20036;-60
2020/12/29 09:11:15;;;;;;;42.22;23.20;;;5.00;99.90;;;;;;5043666;28;20031;-61
2020/12/29 09:14:02;;;;;;;53.42;25.52;;;5.10;99.90;;;;;;5072021;28;20566;-60
2020/12/29 09:16:28;;;;;;;46.00;24.38;;;5.10;99.90;;;;;;5072957;28;20020;-61
2020/12/29 09:18:54;;;;;;;42.03;22.52;;;5.10;99.90;;;;;;5072062;28;20031;-60
2020/12/29 09:21:24;;;;;;;48.15;24.02;;;5.00;99.90;;;;;;5072138;28;20077;-62
2020/12/29 09:24:03;;;;;;;51.00;24.45;;;5.00;99.90;;;;;;5071614;28;20060;-61
2020/12/29 09:26:29;;;;;;;47.08;24.85;;;4.90;99.90;;;;;;5064325;28;20074;-61
2020/12/29 09:28:55;;;;;;;43.55;23.35;;;4.90;99.90;;;;;;5053432;28;20020;-61
2020/12/29 09:31:25;;;;;;;42.00;22.83;;;4.90;99.90;;;;;;5076585;28;20047;-61
2020/12/29 09:33:50;;;;;;;40.63;21.73;;;5.00;99.90;;;;;;5077531;28;20105;-60
2020/12/29 09:36:21;;;;;;;44.47;24.63;;;4.90;99.90;;;;;;5072896;28;20028;-61
2020/12/29 09:38:52;;;;;;;42.15;24.15;;;4.90;99.90;;;;;;5075859;28;20106;-61
2020/12/29 09:41:18;;;;;;;50.15;25.33;;;4.90;99.90;;;;;;5073643;28;20032;-61
2020/12/29 09:43:48;;;;;;;46.65;25.25;;;4.90;99.90;;;;;;5072059;28;20028;-61
2020/12/29 09:46:13;;;;;;;39.58;24.42;;;4.90;99.90;;;;;;5071337;28;20017;-61
2020/12/29 09:48:40;;;;;;;44.65;24.70;;;4.80;99.90;;;;;;5071226;28;20045;-60
2020/12/29 09:51:09;;;;;;;46.90;27.10;;;4.80;99.90;;;;;;5071550;28;20023;-61
2020/12/29 09:53:34;;;;;;;43.47;26.35;;;4.80;99.90;;;;;;5070754;28;20116;-61
2020/12/29 09:56:00;;;;;;;48.60;26.38;;;4.80;99.90;;;;;;5052585;28;20066;-61
2020/12/29 09:58:26;;;;;;;44.33;26.15;;;4.80;99.90;;;;;;5071276;28;20055;-61
2020/12/29 10:00:52;;;;;;;40.80;24.70;;;4.80;99.90;;;;;;5072394;28;20034;-61
2020/12/29 10:03:17;;;;;;;41.85;25.35;;;4.90;99.90;;;;;;5071873;28;20548;-61
2020/12/29 10:05:43;;;;;;;37.05;23.52;;;4.90;99.90;;;;;;5075029;28;20028;-60
2020/12/29 10:08:12;;;;;;;32.72;20.63;;;4.90;99.90;;;;;;5074848;28;20017;-60
2020/12/29 10:10:38;;;;;;;40.13;23.50;;;4.90;99.90;;;;;;5071605;28;20496;-61
2020/12/29 10:13:04;;;;;;;36.00;20.92;;;4.90;99.90;;;;;;5071717;28;20033;-61
2020/12/29 10:15:30;;;;;;;42.03;24.35;;;5.00;99.90;;;;;;5072328;28;20024;-61
2020/12/29 10:17:55;;;;;;;40.75;22.85;;;5.00;99.90;;;;;;5074545;28;20036;-61
2020/12/29 10:20:21;;;;;;;33.63;20.95;;;5.00;99.90;;;;;;5071328;28;20047;-60
2020/12/29 10:22:47;;;;;;;42.17;21.10;;;5.10;99.90;;;;;;5071411;28;20461;-61
2020/12/29 10:25:16;;;;;;;37.97;22.50;;;5.00;99.90;;;;;;5069425;28;20071;-60
2020/12/29 10:27:44;;;;;;;41.75;22.85;;;5.10;99.90;;;;;;5070214;28;20020;-62
2020/12/29 10:30:10;;;;;;;36.30;22.02;;;5.10;99.90;;;;;;5071512;28;20013;-62
2020/12/29 10:32:36;;;;;;;40.03;24.20;;;5.00;99.90;;;;;;5070585;28;20029;-59
2020/12/29 10:35:02;;;;;;;49.97;24.70;;;5.00;99.90;;;;;;5070938;28;20367;-61
2020/12/29 10:37:27;;;;;;;38.85;23.60;;;5.00;99.90;;;;;;5070971;28;20028;-62
2020/12/29 10:39:53;;;;;;;48.60;25.30;;;5.00;99.90;;;;;;5071185;28;20025;-61
2020/12/29 10:42:19;;;;;;;39.28;24.00;;;5.00;99.90;;;;;;5069188;28;20032;-62
2020/12/29 10:44:44;;;;;;;35.40;21.25;;;5.00;99.90;;;;;;5070657;28;20009;-60
2020/12/29 10:47:10;;;;;;;48.28;25.02;;;4.90;99.90;;;;;;5063845;28;20036;-60
2020/12/29 10:49:35;;;;;;;43.00;23.60;;;5.00;99.90;;;;;;5070541;28;20040;-62
2020/12/29 10:52:01;;;;;;;41.25;22.25;;;5.10;99.90;;;;;;5070338;28;20054;-63
2020/12/29 10:54:27;;;;;;;42.88;22.45;;;5.10;99.90;;;;;;5076105;28;20025;-62
2020/12/29 10:56:52;;;;;;;43.60;22.08;;;5.00;99.90;;;;;;5070349;28;20107;-62
2020/12/29 10:59:18;;;;;;;41.38;23.83;;;5.10;99.90;;;;;;5069773;28;20474;-62
2020/12/29 11:01:43;;;;;;;47.15;24.40;;;5.20;99.90;;;;;;5069359;28;20413;-60
2020/12/29 11:04:09;;;;;;;43.72;22.52;;;5.20;99.90;;;;;;5068389;28;20027;-61
2020/12/29 11:06:34;;;;;;;39.85;20.80;;;5.30;99.90;;;;;;5074471;28;20054;-60
2020/12/29 11:09:00;;;;;;;41.08;21.85;;;5.30;99.90;;;;;;5062655;28;20405;-60
2020/12/29 11:11:25;;;;;;;38.05;22.67;;;5.30;99.90;;;;;;5070424;28;20078;-60
2020/12/29 11:13:51;;;;;;;40.00;22.58;;;5.40;99.90;;;;;;5070179;28;20497;-61
2020/12/29 11:16:21;;;;;;;39.75;21.42;;;5.50;99.90;;;;;;5069616;28;20096;-61
2020/12/29 11:18:48;;;;;;;36.13;19.48;;;5.50;99.90;;;;;;5069014;28;20048;-62
2020/12/29 11:21:15;;;;;;;40.67;20.88;;;5.30;99.90;;;;;;5071313;28;20470;-60
2020/12/29 11:23:41;;;;;;;36.95;19.52;;;5.30;99.90;;;;;;5068783;28;20324;-62
2020/12/29 11:26:07;;;;;;;31.45;19.13;;;5.30;99.90;;;;;;5070384;28;20549;-61
2020/12/29 11:28:32;;;;;;;33.85;18.52;;;5.30;99.90;;;;;;5069486;28;20474;-62
2020/12/29 11:30:58;;;;;;;29.50;17.00;;;5.40;99.90;;;;;;5069957;28;20090;-61
2020/12/29 11:33:24;;;;;;;31.63;17.67;;;5.60;99.90;;;;;;5051919;28;20398;-61
2020/12/29 11:35:49;;;;;;;30.73;16.77;;;5.70;99.90;;;;;;5072892;28;20168;-60
2020/12/29 11:38:16;;;;;;;27.38;15.20;;;5.80;99.90;;;;;;5073576;28;20032;-60
2020/12/29 11:40:44;;;;;;;24.52;14.55;;;5.60;99.90;;;;;;5055056;28;20024;-62
2020/12/29 11:43:10;;;;;;;26.90;13.02;;;5.60;99.90;;;;;;5082379;28;20115;-63
2020/12/29 11:45:36;;;;;;;26.67;13.65;;;5.60;99.90;;;;;;5073497;28;20086;-61
2020/12/29 11:48:02;;;;;;;21.48;12.27;;;5.70;99.90;;;;;;5069186;28;20061;-62
2020/12/29 11:50:28;;;;;;;19.63;11.50;;;5.70;99.90;;;;;;5070856;28;20103;-62
2020/12/29 11:52:53;;;;;;;22.63;11.38;;;5.80;99.90;;;;;;5056996;28;20469;-60
2020/12/29 11:55:19;;;;;;;19.58;11.25;;;5.70;99.90;;;;;;5054185;28;20021;-61
2020/12/29 11:57:44;;;;;;;22.95;12.38;;;5.70;99.90;;;;;;5053441;28;20117;-62
2020/12/29 12:00:10;;;;;;;24.90;11.55;;;5.70;99.90;;;;;;5052939;28;20025;-62
2020/12/29 12:02:36;;;;;;;20.00;11.60;;;5.60;99.90;;;;;;5056252;28;20032;-62
2020/12/29 12:05:02;;;;;;;21.90;12.38;;;5.60;99.90;;;;;;5056605;28;20175;-62
2020/12/29 12:07:27;;;;;;;18.52;10.07;;;5.50;99.90;;;;;;5044223;28;20032;-61
2020/12/29 12:09:53;;;;;;;17.33;10.52;;;5.50;99.90;;;;;;5048774;28;20078;-61
2020/12/29 12:12:19;;;;;;;17.98;10.02;;;5.60;99.90;;;;;;5055328;28;20096;-60
2020/12/29 12:14:44;;;;;;;18.83;10.45;;;5.60;99.90;;;;;;5034357;28;20021;-60
2020/12/29 12:17:10;;;;;;;17.48;11.20;;;5.60;99.90;;;;;;5050036;28;20166;-60
2020/12/29 12:19:35;;;;;;;19.45;11.27;;;5.70;99.90;;;;;;5052161;28;20326;-61
2020/12/29 12:22:02;;;;;;;16.55;11.20;;;5.80;99.90;;;;;;5051128;28;20462;-62
2020/12/29 12:24:27;;;;;;;18.08;11.00;;;5.80;99.90;;;;;;5045486;28;20021;-60
2020/12/29 12:26:53;;;;;;;29.63;11.95;;;5.80;99.90;;;;;;5057896;28;20028;-61
2020/12/29 12:29:18;;;;;;;18.92;11.63;;;5.80;99.90;;;;;;5030984;28;20498;-61
2020/12/29 12:31:44;;;;;;;20.23;10.98;;;5.90;99.90;;;;;;5057819;28;20471;-60
2020/12/29 12:34:10;;;;;;;18.27;11.52;;;5.90;99.90;;;;;;5051578;28;20021;-61
2020/12/29 12:36:35;;;;;;;22.98;11.70;;;6.00;99.90;;;;;;5054124;28;20028;-61
2020/12/29 12:39:01;;;;;;;23.13;11.75;;;6.00;99.90;;;;;;5057338;28;20029;-61